Time;durP1;ratioP1;P1;durP2;ratioP2;P2;SDS_P1;SDS_P2;PMS_P1;PMS_P2;Temp;Humidity;BMP_temperature;BMP_pressure;BME280_temperature;BME280_humidity;BME280_pressure;Samples;Min_cycle;Max_cycle;Signal;HPM_P1;HPM_P2
2024/04/18 00:02:01;;;;;;;7.60;5.20;;;;;;;;;;6031880;27;20012;-72
2024/04/18 00:04:52;;;;;;;11.32;4.65;;;;;;;;;;6033751;27;20519;-73
2024/04/18 00:07:43;;;;;;;6.88;3.80;;;;;;;;;;6033160;27;20372;-73
2024/04/18 00:10:34;;;;;;;9.23;4.30;;;;;;;;;;6032821;27;20012;-73
2024/04/18 00:13:25;;;;;;;9.73;4.50;;;;;;;;;;6032915;27;20008;-73
2024/04/18 00:16:15;;;;;;;17.75;4.53;;;;;;;;;;6032895;27;20013;-73
2024/04/18 00:19:06;;;;;;;23.52;5.40;;;;;;;;;;6033122;27;20019;-72
2024/04/18 00:21:58;;;;;;;20.77;6.15;;;;;;;;;;6033324;27;20463;-73
2024/04/18 00:24:49;;;;;;;3.83;3.53;;;;;;;;;;6004806;27;20009;-73
2024/04/18 00:27:40;;;;;;;44.58;5.70;;;;;;;;;;6032813;27;20008;-73
2024/04/18 00:30:31;;;;;;;9.10;3.45;;;;;;;;;;6032590;27;20012;-73
2024/04/18 00:33:22;;;;;;;17.15;3.75;;;;;;;;;;6003811;27;20024;-73
2024/04/18 00:36:13;;;;;;;19.77;4.22;;;;;;;;;;6032470;27;20008;-73
2024/04/18 00:39:04;;;;;;;7.00;3.00;;;;;;;;;;6004693;27;20408;-73
2024/04/18 00:41:55;;;;;;;5.35;4.13;;;;;;;;;;6033171;27;20022;-73
2024/04/18 00:44:46;;;;;;;7.78;3.17;;;;;;;;;;6032665;27;20004;-73
2024/04/18 00:47:37;;;;;;;11.60;4.68;;;;;;;;;;6032620;27;20044;-73
2024/04/18 00:50:28;;;;;;;8.32;4.10;;;;;;;;;;6032515;27;20008;-73
2024/04/18 00:53:21;;;;;;;6.97;4.35;;;;;;;;;;6032381;27;20018;-72
2024/04/18 00:56:12;;;;;;;20.10;4.43;;;;;;;;;;5977719;27;20360;-72
2024/04/18 00:59:06;;;;;;;4.30;3.20;;;;;;;;;;6032403;27;20018;-72
2024/04/18 01:01:57;;;;;;;36.55;5.53;;;;;;;;;;6004722;27;20008;-73
2024/04/18 01:05:06;;;;;;;30.30;4.30;;;;;;;;;;6032269;27;20138;-73
2024/04/18 01:07:57;;;;;;;28.23;3.05;;;;;;;;;;6032615;27;20408;-73
2024/04/18 01:10:48;;;;;;;6.95;3.13;;;;;;;;;;6032380;27;20013;-72
2024/04/18 01:13:39;;;;;;;11.38;2.88;;;;;;;;;;6003917;27;20023;-72
2024/04/18 01:16:30;;;;;;;7.13;3.55;;;;;;;;;;6032077;27;20019;-72
2024/04/18 01:19:21;;;;;;;21.08;5.40;;;;;;;;;;6032071;27;20032;-73
2024/04/18 01:22:12;;;;;;;25.08;4.20;;;;;;;;;;6032197;27;20019;-73
2024/04/18 01:25:03;;;;;;;8.23;4.18;;;;;;;;;;6032033;27;20131;-72
2024/04/18 01:27:54;;;;;;;19.58;6.22;;;;;;;;;;6032365;27;20009;-73
2024/04/18 01:30:45;;;;;;;28.63;4.47;;;;;;;;;;6031741;27;20018;-73
2024/04/18 01:33:36;;;;;;;9.52;5.03;;;;;;;;;;6031904;27;20351;-73
2024/04/18 01:36:27;;;;;;;3.75;3.30;;;;;;;;;;6031312;27;20008;-73
2024/04/18 01:39:18;;;;;;;98.05;8.55;;;;;;;;;;6031702;27;20020;-73
2024/04/18 01:42:10;;;;;;;47.78;6.75;;;;;;;;;;6031739;27;20008;-72
2024/04/18 01:45:01;;;;;;;16.95;4.07;;;;;;;;;;6030546;27;20080;-72
2024/04/18 01:47:51;;;;;;;46.80;6.82;;;;;;;;;;6031939;27;20016;-73
2024/04/18 01:50:42;;;;;;;17.23;4.38;;;;;;;;;;6031450;27;20015;-73
2024/04/18 01:53:33;;;;;;;62.88;5.68;;;;;;;;;;6031781;27;20839;-73
2024/04/18 01:56:24;;;;;;;6.53;2.55;;;;;;;;;;6003034;27;20335;-73
2024/04/18 01:59:15;;;;;;;26.52;7.20;;;;;;;;;;6031260;27;20032;-73
2024/04/18 02:02:06;;;;;;;27.10;6.25;;;;;;;;;;6031269;27;20615;-72
2024/04/18 02:04:57;;;;;;;18.63;5.47;;;;;;;;;;6032040;27;20342;-73
2024/04/18 02:07:48;;;;;;;69.97;10.20;;;;;;;;;;6031206;27;20016;-73
2024/04/18 02:10:38;;;;;;;13.85;4.32;;;;;;;;;;6031114;27;20008;-73
2024/04/18 02:13:30;;;;;;;39.78;6.53;;;;;;;;;;6031253;27;20005;-73
2024/04/18 02:16:21;;;;;;;9.52;4.00;;;;;;;;;;6030917;27;20028;-73
2024/04/18 02:19:11;;;;;;;40.00;6.00;;;;;;;;;;6030762;27;20356;-73
2024/04/18 02:22:03;;;;;;;57.20;8.68;;;;;;;;;;6030693;27;20022;-73
2024/04/18 02:25:08;;;;;;;23.55;7.22;;;;;;;;;;6031801;27;20012;-73
2024/04/18 02:27:59;;;;;;;31.27;5.00;;;;;;;;;;6031200;27;20019;-73
2024/04/18 02:30:50;;;;;;;18.40;5.80;;;;;;;;;;6030659;27;20009;-73
2024/04/18 02:33:41;;;;;;;70.25;7.47;;;;;;;;;;6030812;27;20008;-73
2024/04/18 02:36:32;;;;;;;17.77;4.90;;;;;;;;;;6029158;27;20106;-73
2024/04/18 02:39:23;;;;;;;10.05;4.20;;;;;;;;;;6030645;27;20016;-73
2024/04/18 02:42:16;;;;;;;19.20;7.15;;;;;;;;;;6030552;27;20020;-73
2024/04/18 02:45:07;;;;;;;43.50;6.25;;;;;;;;;;6030538;27;20015;-73
2024/04/18 02:47:58;;;;;;;11.75;5.40;;;;;;;;;;6031253;27;20016;-73
2024/04/18 02:50:49;;;;;;;7.45;3.95;;;;;;;;;;6030592;27;20008;-73
2024/04/18 02:53:40;;;;;;;21.23;4.03;;;;;;;;;;6030228;27;20008;-73
2024/04/18 02:56:31;;;;;;;49.70;7.18;;;;;;;;;;6030762;27;20041;-73
2024/04/18 02:59:22;;;;;;;11.95;3.53;;;;;;;;;;6034114;27;20418;-73
2024/04/18 03:02:13;;;;;;;27.45;7.22;;;;;;;;;;6005639;27;20012;-73
2024/04/18 03:05:04;;;;;;;45.30;5.82;;;;;;;;;;6033877;27;20022;-73
2024/04/18 03:07:56;;;;;;;11.13;3.88;;;;;;;;;;6034538;27;20023;-73
2024/04/18 03:10:49;;;;;;;13.45;5.13;;;;;;;;;;6034053;27;20036;-73
2024/04/18 03:13:40;;;;;;;5.88;3.72;;;;;;;;;;6034246;27;20008;-73
2024/04/18 03:16:32;;;;;;;15.10;4.53;;;;;;;;;;6005414;27;20467;-72
2024/04/18 03:19:22;;;;;;;30.45;4.85;;;;;;;;;;6005387;27;20016;-72
2024/04/18 03:22:13;;;;;;;30.45;7.53;;;;;;;;;;6033795;27;20009;-72
2024/04/18 03:25:04;;;;;;;52.83;5.07;;;;;;;;;;6033641;27;20012;-72
2024/04/18 03:27:55;;;;;;;6.90;4.75;;;;;;;;;;6034566;27;20023;-73
2024/04/18 03:30:46;;;;;;;11.73;4.35;;;;;;;;;;6033891;27;20008;-73
2024/04/18 03:33:37;;;;;;;40.97;4.53;;;;;;;;;;6033863;27;20042;-72
2024/04/18 03:36:28;;;;;;;8.90;3.35;;;;;;;;;;6033445;27;20009;-73
2024/04/18 03:39:19;;;;;;;6.57;4.10;;;;;;;;;;6033597;27;20008;-72
2024/04/18 03:42:10;;;;;;;12.20;4.18;;;;;;;;;;6005099;27;20024;-72
2024/04/18 03:45:01;;;;;;;21.00;4.18;;;;;;;;;;6033725;27;20022;-72
2024/04/18 03:47:52;;;;;;;8.93;5.10;;;;;;;;;;6034037;27;20009;-73
2024/04/18 03:50:43;;;;;;;5.25;3.08;;;;;;;;;;6033440;27;20016;-73
2024/04/18 03:53:34;;;;;;;9.75;4.85;;;;;;;;;;6033551;27;20016;-73
2024/04/18 03:56:25;;;;;;;6.65;4.03;;;;;;;;;;6033060;27;20335;-73
2024/04/18 03:59:15;;;;;;;7.07;4.72;;;;;;;;;;6033344;27;20004;-72
2024/04/18 04:02:06;;;;;;;6.45;4.55;;;;;;;;;;6033014;27;20020;-72
2024/04/18 04:04:58;;;;;;;14.98;3.92;;;;;;;;;;6033776;27;20418;-73
2024/04/18 04:07:49;;;;;;;8.18;5.22;;;;;;;;;;6032475;27;20016;-73
2024/04/18 04:10:42;;;;;;;6.47;4.38;;;;;;;;;;6004581;27;20005;-73
2024/04/18 04:13:33;;;;;;;8.30;4.70;;;;;;;;;;6032997;27;20012;-73
2024/04/18 04:16:24;;;;;;;5.63;4.35;;;;;;;;;;6004315;27;20020;-74
2024/04/18 04:19:15;;;;;;;21.08;3.92;;;;;;;;;;6032668;27;20343;-73
2024/04/18 04:22:06;;;;;;;6.22;3.25;;;;;;;;;;6032753;27;20008;-74
2024/04/18 04:24:57;;;;;;;5.50;4.22;;;;;;;;;;6033410;27;20008;-74
2024/04/18 04:27:48;;;;;;;6.25;4.60;;;;;;;;;;6032940;27;20412;-74
2024/04/18 04:30:39;;;;;;;14.93;4.47;;;;;;;;;;6032568;27;20017;-74
2024/04/18 04:33:32;;;;;;;5.65;3.33;;;;;;;;;;6032608;27;20494;-74
2024/04/18 04:36:23;;;;;;;4.63;4.20;;;;;;;;;;6032203;27;20012;-74
2024/04/18 04:39:15;;;;;;;24.25;4.20;;;;;;;;;;6032339;27;20008;-75
2024/04/18 04:42:06;;;;;;;5.55;4.43;;;;;;;;;;6032213;27;20088;-74
2024/04/18 04:44:56;;;;;;;8.90;3.90;;;;;;;;;;6032968;27;20008;-74
2024/04/18 04:47:50;;;;;;;6.20;4.97;;;;;;;;;;6032420;27;20019;-75
2024/04/18 04:50:41;;;;;;;6.47;3.53;;;;;;;;;;6032007;27;20020;-75
2024/04/18 04:53:32;;;;;;;4.78;3.45;;;;;;;;;;6032148;27;20009;-74
2024/04/18 04:56:23;;;;;;;5.60;5.00;;;;;;;;;;6032038;27;20902;-74
2024/04/18 04:59:13;;;;;;;4.63;4.15;;;;;;;;;;6031979;27;20008;-74
2024/04/18 05:02:05;;;;;;;4.90;4.45;;;;;;;;;;6031789;27;20027;-74
2024/04/18 05:04:56;;;;;;;12.93;6.03;;;;;;;;;;6032226;27;20008;-75
2024/04/18 05:07:49;;;;;;;6.30;4.20;;;;;;;;;;6031922;27;20008;-75
2024/04/18 05:10:45;;;;;;;6.78;4.13;;;;;;;;;;6004466;27;20008;-74
2024/04/18 05:13:35;;;;;;;7.88;5.50;;;;;;;;;;6031550;27;20008;-75
2024/04/18 05:16:26;;;;;;;5.60;4.68;;;;;;;;;;6031658;27;20374;-74
2024/04/18 05:19:19;;;;;;;7.63;4.63;;;;;;;;;;6031527;27;20455;-74
2024/04/18 05:22:10;;;;;;;6.72;4.75;;;;;;;;;;6031411;27;20324;-74
2024/04/18 05:25:01;;;;;;;6.43;4.93;;;;;;;;;;6031745;27;20023;-73
2024/04/18 05:28:03;;;;;;;8.73;5.78;;;;;;;;;;6032178;27;20023;-74
2024/04/18 05:31:01;;;;;;;6.60;5.30;;;;;;;;;;6031803;27;20008;-74
2024/04/18 05:33:52;;;;;;;8.50;4.80;;;;;;;;;;6031823;27;20008;-74
2024/04/18 05:36:46;;;;;;;14.77;5.68;;;;;;;;;;6031136;27;20009;-74
2024/04/18 05:39:37;;;;;;;8.82;5.90;;;;;;;;;;6003349;27;20008;-74
2024/04/18 05:42:28;;;;;;;14.13;6.65;;;;;;;;;;6031170;27;20008;-74
2024/04/18 05:45:19;;;;;;;23.02;6.47;;;;;;;;;;6029868;27;20453;-74
2024/04/18 05:48:09;;;;;;;18.73;6.75;;;;;;;;;;6031320;27;20008;-74
2024/04/18 05:51:00;;;;;;;10.18;5.25;;;;;;;;;;6031281;27;20016;-73
2024/04/18 05:53:51;;;;;;;9.43;5.80;;;;;;;;;;6030064;27;20023;-75
2024/04/18 05:56:43;;;;;;;6.10;4.20;;;;;;;;;;6030749;27;20056;-74
2024/04/18 05:59:34;;;;;;;8.05;5.57;;;;;;;;;;6031381;27;20012;-74
2024/04/18 06:02:25;;;;;;;11.85;4.85;;;;;;;;;;6031201;27;20008;-74
2024/04/18 06:05:15;;;;;;;11.18;4.50;;;;;;;;;;6030777;27;20080;-74
2024/04/18 06:08:07;;;;;;;15.82;5.88;;;;;;;;;;6002750;27;20009;-74
2024/04/18 06:10:58;;;;;;;9.75;5.30;;;;;;;;;;6003065;27;20032;-74
2024/04/18 06:13:48;;;;;;;6.28;4.68;;;;;;;;;;6030948;27;20004;-74
2024/04/18 06:16:39;;;;;;;7.13;5.40;;;;;;;;;;6030585;27;20474;-74
2024/04/18 06:19:30;;;;;;;19.42;6.07;;;;;;;;;;6030860;27;20016;-74
2024/04/18 06:22:21;;;;;;;7.07;5.80;;;;;;;;;;6030838;27;20060;-75
2024/04/18 06:25:12;;;;;;;28.95;7.80;;;;;;;;;;6030782;27;20008;-74
2024/04/18 06:28:13;;;;;;;6.03;4.75;;;;;;;;;;6030671;27;20009;-74
2024/04/18 06:31:04;;;;;;;8.35;6.20;;;;;;;;;;6030717;27;20016;-74
2024/04/18 06:33:56;;;;;;;5.70;4.82;;;;;;;;;;6035090;27;20023;-75
2024/04/18 06:36:48;;;;;;;8.65;4.90;;;;;;;;;;6033816;27;20036;-74
2024/04/18 06:39:38;;;;;;;7.13;4.47;;;;;;;;;;6034309;27;20008;-75
2024/04/18 06:42:29;;;;;;;5.00;4.50;;;;;;;;;;6034604;27;20004;-74
2024/04/18 06:45:21;;;;;;;5.13;4.22;;;;;;;;;;6034277;27;20419;-75
2024/04/18 06:48:12;;;;;;;7.03;5.65;;;;;;;;;;6034265;27;20418;-75
2024/04/18 06:51:04;;;;;;;6.20;4.93;;;;;;;;;;6034082;27;20016;-74
2024/04/18 06:53:55;;;;;;;4.85;4.35;;;;;;;;;;6034808;27;20008;-74
2024/04/18 06:56:46;;;;;;;14.77;4.90;;;;;;;;;;6034079;27;20127;-75
2024/04/18 06:59:37;;;;;;;6.28;4.60;;;;;;;;;;6034255;27;20036;-74
2024/04/18 07:02:28;;;;;;;6.95;5.63;;;;;;;;;;6033959;27;20008;-75
2024/04/18 07:05:19;;;;;;;8.70;5.85;;;;;;;;;;6033990;27;20008;-75
2024/04/18 07:08:10;;;;;;;4.97;4.00;;;;;;;;;;6034188;27;20382;-75
2024/04/18 07:11:01;;;;;;;8.38;4.95;;;;;;;;;;6033891;27;20333;-75
2024/04/18 07:13:53;;;;;;;6.28;4.88;;;;;;;;;;6005946;27;20008;-75
2024/04/18 07:16:44;;;;;;;8.00;4.75;;;;;;;;;;6033464;27;20088;-74
2024/04/18 07:19:35;;;;;;;7.43;5.57;;;;;;;;;;6033750;27;20008;-75
2024/04/18 07:22:26;;;;;;;9.82;6.15;;;;;;;;;;6033155;27;20120;-74
2024/04/18 07:25:17;;;;;;;10.57;5.75;;;;;;;;;;6033226;27;20019;-75
2024/04/18 07:28:08;;;;;;;5.95;4.93;;;;;;;;;;6033240;27;20016;-74
2024/04/18 07:30:59;;;;;;;5.68;4.32;;;;;;;;;;6033556;27;20773;-75
2024/04/18 07:33:50;;;;;;;6.65;5.03;;;;;;;;;;6033303;27;20009;-75
2024/04/18 07:36:45;;;;;;;4.95;4.05;;;;;;;;;;6033057;27;20504;-76
2024/04/18 07:39:38;;;;;;;5.70;3.28;;;;;;;;;;6033101;27;20008;-76
2024/04/18 07:42:29;;;;;;;9.52;4.72;;;;;;;;;;6032676;27;20008;-76
2024/04/18 07:45:21;;;;;;;8.60;4.60;;;;;;;;;;6032171;27;20005;-75
2024/04/18 07:48:12;;;;;;;3.28;2.95;;;;;;;;;;6033128;27;20324;-75
2024/04/18 07:51:03;;;;;;;8.18;3.13;;;;;;;;;;6032941;27;20008;-72
2024/04/18 07:53:54;;;;;;;5.07;3.22;;;;;;;;;;6033032;27;20014;-76
2024/04/18 07:56:45;;;;;;;5.55;3.78;;;;;;;;;;6032685;27;20479;-75
2024/04/18 07:59:36;;;;;;;6.07;3.08;;;;;;;;;;6033105;27;20008;-75
2024/04/18 08:02:28;;;;;;;4.03;2.83;;;;;;;;;;6032682;27;20012;-75
2024/04/18 08:05:21;;;;;;;3.20;2.42;;;;;;;;;;6032469;27;20023;-75
2024/04/18 08:08:16;;;;;;;18.20;2.90;;;;;;;;;;6032548;27;20100;-73
2024/04/18 08:11:12;;;;;;;5.90;3.03;;;;;;;;;;6005482;27;20148;-74
2024/04/18 08:14:23;;;;;;;3.38;2.40;;;;;;;;;;6032762;27;20012;-75
2024/04/18 08:17:20;;;;;;;5.72;3.30;;;;;;;;;;6032283;27;20035;-75
2024/04/18 08:20:11;;;;;;;4.53;2.95;;;;;;;;;;6032448;27;20052;-75
2024/04/18 08:23:02;;;;;;;6.63;3.20;;;;;;;;;;6032555;27;20069;-74
2024/04/18 08:25:53;;;;;;;7.78;4.65;;;;;;;;;;6032533;27;20009;-75
2024/04/18 08:28:44;;;;;;;5.53;2.92;;;;;;;;;;6032142;27;20008;-74
2024/04/18 08:31:36;;;;;;;6.00;3.22;;;;;;;;;;6032235;27;20443;-74
2024/04/18 08:34:27;;;;;;;10.20;4.95;;;;;;;;;;6032251;27;20016;-74
2024/04/18 08:37:21;;;;;;;10.23;4.32;;;;;;;;;;6031860;27;20031;-74
2024/04/18 08:40:12;;;;;;;4.47;3.20;;;;;;;;;;6032059;27;20020;-74
2024/04/18 08:43:04;;;;;;;7.38;3.15;;;;;;;;;;6003694;27;20012;-74
2024/04/18 08:45:56;;;;;;;4.07;3.30;;;;;;;;;;6032434;27;20004;-74
2024/04/18 08:48:47;;;;;;;4.80;2.45;;;;;;;;;;6003310;27;20009;-74
2024/04/18 08:51:38;;;;;;;4.35;3.10;;;;;;;;;;6003588;27;20008;-74
2024/04/18 08:54:32;;;;;;;5.80;3.38;;;;;;;;;;6031536;27;20019;-75
2024/04/18 08:57:26;;;;;;;4.80;3.25;;;;;;;;;;6031459;27;20096;-74
2024/04/18 09:00:17;;;;;;;5.05;3.90;;;;;;;;;;6031482;27;20415;-74
2024/04/18 09:03:09;;;;;;;4.25;2.90;;;;;;;;;;6031898;27;20016;-74
2024/04/18 09:06:02;;;;;;;3.45;2.78;;;;;;;;;;6004020;27;20017;-73
2024/04/18 09:08:53;;;;;;;6.28;1.83;;;;;;;;;;6032382;27;20009;-74
2024/04/18 09:11:48;;;;;;;2.20;1.58;;;;;;;;;;6031445;27;20019;-74
2024/04/18 09:14:38;;;;;;;2.33;2.13;;;;;;;;;;6031624;27;20184;-74
2024/04/18 09:17:30;;;;;;;2.25;1.70;;;;;;;;;;6031273;27;20040;-75
2024/04/18 09:20:21;;;;;;;2.67;1.42;;;;;;;;;;6031285;27;20021;-74
2024/04/18 09:23:12;;;;;;;3.10;1.58;;;;;;;;;;6031251;27;20008;-73
2024/04/18 09:26:03;;;;;;;9.20;2.03;;;;;;;;;;6031623;27;20126;-74
2024/04/18 09:28:56;;;;;;;11.68;2.45;;;;;;;;;;6031449;27;20471;-74
2024/04/18 09:31:48;;;;;;;1.45;1.20;;;;;;;;;;6031014;27;20037;-74
2024/04/18 09:34:39;;;;;;;2.75;2.05;;;;;;;;;;6031292;27;20019;-74
2024/04/18 09:37:32;;;;;;;2.97;1.27;;;;;;;;;;6030888;27;20008;-74
2024/04/18 09:40:25;;;;;;;0.80;0.77;;;;;;;;;;6030967;27;20040;-74
2024/04/18 09:43:23;;;;;;;1.80;1.25;;;;;;;;;;6030909;27;20019;-74
2024/04/18 09:46:15;;;;;;;1.08;0.98;;;;;;;;;;6031224;27;20131;-74
2024/04/18 09:49:06;;;;;;;3.97;1.63;;;;;;;;;;6002574;27;20036;-73
2024/04/18 09:51:58;;;;;;;3.47;2.35;;;;;;;;;;6031179;27;20016;-74
2024/04/18 09:54:51;;;;;;;2.95;2.58;;;;;;;;;;6031009;27;20019;-73
2024/04/18 09:57:46;;;;;;;4.55;2.42;;;;;;;;;;6030570;27;20009;-74
2024/04/18 10:00:37;;;;;;;1.40;1.25;;;;;;;;;;6002443;27;20019;-74
2024/04/18 10:03:28;;;;;;;2.55;2.17;;;;;;;;;;6030623;27;20016;-74
2024/04/18 10:06:32;;;;;;;2.80;1.42;;;;;;;;;;6029298;27;20020;-74
2024/04/18 10:09:32;;;;;;;1.42;1.33;;;;;;;;;;6030781;27;20517;-73
2024/04/18 10:12:32;;;;;;;1.88;1.23;;;;;;;;;;6002071;27;20019;-74
2024/04/18 10:15:23;;;;;;;2.83;1.17;;;;;;;;;;6030300;27;20028;-74
2024/04/18 10:18:16;;;;;;;3.20;2.03;;;;;;;;;;6002369;27;20012;-74
2024/04/18 10:21:24;;;;;;;2.67;1.45;;;;;;;;;;6030402;27;20019;-74
2024/04/18 10:24:34;;;;;;;1.58;1.48;;;;;;;;;;6030529;27;20335;-74
2024/04/18 10:27:25;;;;;;;2.35;1.25;;;;;;;;;;6030073;27;20018;-73
2024/04/18 10:30:16;;;;;;;2.33;1.35;;;;;;;;;;6030256;27;20023;-74
2024/04/18 10:33:08;;;;;;;3.80;2.13;;;;;;;;;;6030389;27;20012;-72
2024/04/18 10:35:59;;;;;;;5.07;4.22;;;;;;;;;;6030427;27;20009;-72
2024/04/18 10:38:50;;;;;;;2.25;1.83;;;;;;;;;;6030467;27;20432;-74
2024/04/18 10:41:45;;;;;;;3.13;1.80;;;;;;;;;;6030235;27;20953;-74
2024/04/18 10:44:39;;;;;;;6.75;1.70;;;;;;;;;;6029967;27;20009;-73
2024/04/18 10:47:31;;;;;;;3.70;2.05;;;;;;;;;;6030062;27;20023;-74
2024/04/18 10:50:23;;;;;;;1.38;1.27;;;;;;;;;;6001855;27;20470;-74
2024/04/18 10:53:14;;;;;;;1.58;1.23;;;;;;;;;;6029777;27;20040;-74
2024/04/18 10:56:05;;;;;;;1.85;1.35;;;;;;;;;;6001229;27;20492;-74
2024/04/18 10:58:56;;;;;;;1.75;1.65;;;;;;;;;;6030257;27;20762;-74
2024/04/18 11:01:47;;;;;;;1.55;1.17;;;;;;;;;;6029703;27;20008;-74
2024/04/18 11:04:38;;;;;;;2.53;1.67;;;;;;;;;;6029933;27;20020;-74
2024/04/18 11:07:29;;;;;;;1.98;1.80;;;;;;;;;;6029771;27;20008;-74
2024/04/18 11:10:23;;;;;;;1.48;1.17;;;;;;;;;;6029743;27;20008;-74
2024/04/18 11:13:15;;;;;;;5.45;1.83;;;;;;;;;;6029629;27;20008;-73
2024/04/18 11:16:06;;;;;;;1.80;1.45;;;;;;;;;;6029557;27;20443;-73
2024/04/18 11:18:57;;;;;;;1.42;1.27;;;;;;;;;;6032462;27;20015;-74
2024/04/18 11:21:48;;;;;;;2.63;2.33;;;;;;;;;;6033195;27;20354;-73
2024/04/18 11:24:40;;;;;;;2.88;1.73;;;;;;;;;;6033348;27;20024;-74
2024/04/18 11:27:36;;;;;;;13.23;1.92;;;;;;;;;;6004905;27;20016;-72
2024/04/18 11:30:27;;;;;;;2.33;1.65;;;;;;;;;;6033190;27;20088;-74
2024/04/18 11:33:22;;;;;;;5.88;1.52;;;;;;;;;;6033294;27;20008;-75
2024/04/18 11:36:14;;;;;;;1.85;1.50;;;;;;;;;;6032867;27;20375;-74
2024/04/18 11:39:07;;;;;;;1.33;0.93;;;;;;;;;;6033016;27;20457;-73
2024/04/18 11:41:58;;;;;;;2.10;1.23;;;;;;;;;;6033617;27;20019;-74
2024/04/18 11:44:49;;;;;;;1.60;1.48;;;;;;;;;;6004795;27;20009;-73
2024/04/18 11:47:40;;;;;;;10.82;4.75;;;;;;;;;;6032890;27;20008;-74
2024/04/18 11:50:31;;;;;;;5.63;2.83;;;;;;;;;;6032944;27;20020;-73
2024/04/18 11:53:22;;;;;;;11.55;4.72;;;;;;;;;;6032653;27;20008;-73
2024/04/18 11:56:13;;;;;;;6.55;2.53;;;;;;;;;;6032506;27;20020;-73
2024/04/18 11:59:04;;;;;;;3.13;1.95;;;;;;;;;;6032666;27;20018;-73
2024/04/18 12:01:55;;;;;;;2.00;1.20;;;;;;;;;;6033265;27;20008;-74
2024/04/18 12:04:46;;;;;;;1.38;1.27;;;;;;;;;;6032630;27;20009;-74
2024/04/18 12:07:36;;;;;;;1.45;1.17;;;;;;;;;;6032025;27;20447;-73
2024/04/18 12:10:27;;;;;;;1.25;1.15;;;;;;;;;;6032507;27;20012;-73
2024/04/18 12:13:18;;;;;;;4.22;1.50;;;;;;;;;;6032256;27;20451;-74
2024/04/18 12:16:09;;;;;;;1.92;1.52;;;;;;;;;;6032374;27;20023;-73
2024/04/18 12:19:00;;;;;;;3.08;2.78;;;;;;;;;;6019605;27;20020;-73
2024/04/18 12:21:51;;;;;;;10.00;5.18;;;;;;;;;;6033200;27;20008;-74
2024/04/18 12:24:42;;;;;;;21.83;9.95;;;;;;;;;;6060757;27;20402;-73
2024/04/18 12:27:33;;;;;;;4.95;2.67;;;;;;;;;;6072104;27;20018;-73
2024/04/18 12:30:24;;;;;;;5.85;3.45;;;;;;;;;;6033207;27;20008;-73
2024/04/18 12:33:19;;;;;;;3.38;2.22;;;;;;;;;;6043134;27;20016;-73
2024/04/18 12:36:13;;;;;;;2.67;1.35;;;;;;;;;;6071957;27;20459;-72
2024/04/18 12:39:04;;;;;;;3.20;1.58;;;;;;;;;;6043498;27;20007;-72
2024/04/18 12:41:58;;;;;;;2.40;1.00;;;;;;;;;;6047035;27;20031;-73
2024/04/18 12:44:48;;;;;;;2.47;1.55;;;;;;;;;;6061981;27;20008;-73
2024/04/18 12:47:39;;;;;;;2.05;0.70;;;;;;;;;;6071327;27;20066;-72
2024/04/18 12:50:31;;;;;;;1.20;1.10;;;;;;;;;;6067487;27;20023;-72
2024/04/18 12:53:23;;;;;;;7.75;1.85;;;;;;;;;;6042249;27;20015;-73
2024/04/18 12:56:14;;;;;;;2.28;1.33;;;;;;;;;;6071304;27;20008;-72
2024/04/18 12:59:05;;;;;;;2.70;1.95;;;;;;;;;;6070869;27;20340;-72
2024/04/18 13:01:56;;;;;;;3.05;2.30;;;;;;;;;;6047194;27;20435;-73
2024/04/18 13:04:48;;;;;;;3.33;2.22;;;;;;;;;;6060608;27;20087;-73
2024/04/18 13:07:39;;;;;;;6.00;4.80;;;;;;;;;;6071289;27;20008;-74
2024/04/18 13:10:30;;;;;;;15.05;8.10;;;;;;;;;;6041931;27;20007;-74
2024/04/18 13:13:21;;;;;;;4.80;3.13;;;;;;;;;;6003492;27;20024;-74
2024/04/18 13:16:15;;;;;;;3.22;2.38;;;;;;;;;;6005013;27;20020;-73
2024/04/18 13:19:06;;;;;;;4.65;2.13;;;;;;;;;;6030854;27;20439;-74
2024/04/18 13:21:57;;;;;;;1.73;1.63;;;;;;;;;;6032824;27;20040;-74
2024/04/18 13:24:50;;;;;;;1.77;1.63;;;;;;;;;;6032978;27;20031;-74
2024/04/18 13:27:41;;;;;;;5.60;2.05;;;;;;;;;;6032880;27;21105;-74
2024/04/18 13:30:32;;;;;;;2.47;2.03;;;;;;;;;;6032122;27;20008;-74
2024/04/18 13:33:24;;;;;;;3.13;2.22;;;;;;;;;;6032037;27;20004;-74
2024/04/18 13:36:15;;;;;;;1.50;1.15;;;;;;;;;;6032258;27;20018;-74
2024/04/18 13:39:08;;;;;;;4.38;1.77;;;;;;;;;;6031892;27;20020;-73
2024/04/18 13:41:59;;;;;;;2.55;1.90;;;;;;;;;;6032199;27;20140;-74
2024/04/18 13:44:52;;;;;;;1.67;1.48;;;;;;;;;;6004001;27;20448;-73
2024/04/18 13:47:43;;;;;;;0.98;0.75;;;;;;;;;;6031408;27;20008;-74
2024/04/18 13:50:34;;;;;;;1.27;1.13;;;;;;;;;;6031609;27;20008;-74
2024/04/18 13:53:25;;;;;;;1.20;0.93;;;;;;;;;;6031710;27;20023;-73
2024/04/18 13:56:17;;;;;;;21.50;1.30;;;;;;;;;;6031949;27;20035;-73
2024/04/18 13:59:08;;;;;;;1.00;0.90;;;;;;;;;;6031641;27;20008;-73
2024/04/18 14:02:02;;;;;;;1.70;1.10;;;;;;;;;;6032172;27;20020;-73
2024/04/18 14:04:53;;;;;;;2.25;1.20;;;;;;;;;;6031358;27;20008;-73
2024/04/18 14:07:44;;;;;;;2.28;1.08;;;;;;;;;;6031495;27;20008;-73
2024/04/18 14:10:35;;;;;;;4.53;2.17;;;;;;;;;;6031474;27;20044;-73
2024/04/18 14:13:26;;;;;;;0.57;0.57;;;;;;;;;;6031254;27;20008;-73
2024/04/18 14:19:26;;;;;;;1.02;0.93;;;;;;;;;;6031165;27;20008;-73
2024/04/18 14:22:17;;;;;;;3.13;1.20;;;;;;;;;;6030974;27;20008;-73
2024/04/18 14:25:08;;;;;;;0.70;0.70;;;;;;;;;;6031210;27;20012;-73
2024/04/18 14:27:59;;;;;;;2.75;2.13;;;;;;;;;;6031793;27;20008;-73
2024/04/18 14:30:54;;;;;;;0.90;0.80;;;;;;;;;;6031364;27;20023;-73
2024/04/18 14:33:46;;;;;;;0.95;0.68;;;;;;;;;;6031061;27;20027;-73
2024/04/18 14:36:41;;;;;;;2.97;1.50;;;;;;;;;;6031462;27;20009;-73
2024/04/18 14:39:33;;;;;;;6.90;2.58;;;;;;;;;;6030553;27;20121;-73
2024/04/18 14:42:24;;;;;;;4.50;1.70;;;;;;;;;;6030504;27;20455;-73
2024/04/18 14:45:15;;;;;;;3.60;1.45;;;;;;;;;;6030969;27;20173;-72
2024/04/18 14:48:07;;;;;;;28.67;2.90;;;;;;;;;;6030566;27;20061;-73
2024/04/18 14:50:58;;;;;;;5.20;2.10;;;;;;;;;;6030910;27;20522;-73
2024/04/18 14:53:49;;;;;;;3.10;2.45;;;;;;;;;;6033178;27;20016;-73
2024/04/18 14:56:41;;;;;;;6.25;2.97;;;;;;;;;;6034766;27;20015;-73
2024/04/18 14:59:32;;;;;;;3.13;1.48;;;;;;;;;;6034492;27;20044;-73
2024/04/18 15:02:22;;;;;;;1.67;1.10;;;;;;;;;;6034136;27;20320;-73
2024/04/18 15:05:14;;;;;;;5.18;2.17;;;;;;;;;;6034181;27;20020;-72
2024/04/18 15:08:06;;;;;;;1.15;1.05;;;;;;;;;;6034333;27;20107;-72
2024/04/18 15:10:57;;;;;;;2.15;1.00;;;;;;;;;;6034657;27;20443;-73
2024/04/18 15:13:48;;;;;;;3.05;1.75;;;;;;;;;;6034509;27;20009;-73
2024/04/18 15:16:40;;;;;;;2.63;1.27;;;;;;;;;;6034780;27;20018;-72
2024/04/18 15:19:31;;;;;;;1.50;1.40;;;;;;;;;;6031847;27;20052;-73
2024/04/18 15:22:22;;;;;;;0.93;0.75;;;;;;;;;;6034279;27;20016;-72
2024/04/18 15:25:13;;;;;;;1.33;1.23;;;;;;;;;;6034287;27;20024;-73
2024/04/18 15:28:04;;;;;;;3.30;1.60;;;;;;;;;;6033949;27;20020;-72
2024/04/18 15:30:55;;;;;;;2.10;1.58;;;;;;;;;;6034040;27;20016;-72
2024/04/18 15:33:46;;;;;;;2.92;1.00;;;;;;;;;;6033411;27;20469;-73
2024/04/18 15:36:37;;;;;;;2.22;1.17;;;;;;;;;;6033788;27;20084;-72
2024/04/18 15:39:28;;;;;;;1.23;1.10;;;;;;;;;;6033485;27;20009;-72
2024/04/18 15:42:19;;;;;;;5.03;2.42;;;;;;;;;;6033434;27;20009;-72
2024/04/18 15:45:10;;;;;;;2.13;1.90;;;;;;;;;;6033840;27;20020;-72
2024/04/18 15:48:01;;;;;;;4.28;1.38;;;;;;;;;;6033551;27;20008;-72
2024/04/18 15:50:53;;;;;;;2.35;2.15;;;;;;;;;;6033678;27;20009;-73
2024/04/18 15:53:43;;;;;;;3.03;1.30;;;;;;;;;;6033495;27;20066;-72
2024/04/18 15:56:34;;;;;;;5.18;3.33;;;;;;;;;;6033747;27;20041;-72
2024/04/18 15:59:25;;;;;;;14.82;6.32;;;;;;;;;;6033360;27;20049;-72
2024/04/18 16:02:16;;;;;;;3.28;1.98;;;;;;;;;;6033077;27;20044;-73
2024/04/18 16:05:07;;;;;;;2.08;0.95;;;;;;;;;;6031795;27;20016;-71
2024/04/18 16:07:58;;;;;;;4.55;1.77;;;;;;;;;;6033566;27;20131;-72
2024/04/18 16:10:49;;;;;;;9.68;6.55;;;;;;;;;;6032780;27;20020;-72
2024/04/18 16:13:39;;;;;;;5.85;3.33;;;;;;;;;;6033301;27;20020;-72
2024/04/18 16:16:30;;;;;;;4.07;2.05;;;;;;;;;;6033527;27;20935;-72
2024/04/18 16:19:21;;;;;;;1.13;1.02;;;;;;;;;;6032694;27;20023;-73
2024/04/18 16:22:14;;;;;;;2.88;2.38;;;;;;;;;;6032632;27;20441;-72
2024/04/18 16:25:06;;;;;;;4.90;1.60;;;;;;;;;;6032605;27;20040;-72
2024/04/18 16:27:56;;;;;;;2.17;1.98;;;;;;;;;;6033304;27;20008;-73
2024/04/18 16:30:48;;;;;;;4.03;2.38;;;;;;;;;;6032555;27;20022;-73
2024/04/18 16:33:39;;;;;;;3.47;2.92;;;;;;;;;;6004312;27;20008;-72
2024/04/18 16:36:30;;;;;;;3.95;2.33;;;;;;;;;;6032978;27;20460;-72
2024/04/18 16:39:28;;;;;;;2.45;1.85;;;;;;;;;;6032723;27;20008;-73
2024/04/18 16:42:18;;;;;;;2.53;2.25;;;;;;;;;;6032317;27;20057;-73
2024/04/18 16:45:09;;;;;;;1.85;1.52;;;;;;;;;;6032704;27;20008;-73
2024/04/18 16:48:00;;;;;;;2.45;1.85;;;;;;;;;;6032865;27;20359;-73
2024/04/18 16:50:52;;;;;;;3.00;2.75;;;;;;;;;;6004194;27;20013;-73
2024/04/18 16:53:43;;;;;;;6.65;3.40;;;;;;;;;;6032597;27;20026;-73
2024/04/18 16:56:34;;;;;;;5.97;3.95;;;;;;;;;;6004360;27;20008;-73
2024/04/18 16:59:25;;;;;;;2.83;2.58;;;;;;;;;;6032377;27;20046;-73
2024/04/18 17:02:16;;;;;;;6.70;3.80;;;;;;;;;;6031983;27;20019;-72
2024/04/18 17:05:12;;;;;;;8.88;3.13;;;;;;;;;;6003756;27;20041;-72
2024/04/18 17:08:03;;;;;;;2.88;2.60;;;;;;;;;;6032431;27;20009;-73
2024/04/18 17:10:54;;;;;;;5.93;3.00;;;;;;;;;;6032495;27;20021;-73